createdAt,value
2022-08-05T00:00:46.403Z,29.56
2022-08-05T00:01:48.936Z,29.58
2022-08-05T00:02:50.982Z,29.58
2022-08-05T00:03:44.107Z,29.44
2022-08-05T00:04:43.097Z,29.39
2022-08-05T00:06:05.770Z,29.44
2022-08-05T00:06:44.073Z,29.44
2022-08-05T00:08:00.158Z,29.37
2022-08-05T00:08:44.060Z,29.33
2022-08-05T00:09:43.050Z,29.39
2022-08-05T00:10:43.101Z,29.34
2022-08-05T00:11:49.648Z,29.33
2022-08-05T00:12:56.189Z,29.33
2022-08-05T00:13:44.004Z,29.29
2022-08-05T00:14:43.990Z,29.29
2022-08-05T00:15:57.525Z,29.27
2022-08-05T00:16:52.386Z,29.28
2022-08-05T00:17:43.961Z,29.21
2022-08-05T00:18:42.948Z,29.21
2022-08-05T00:19:45.778Z,29.25
2022-08-05T00:20:43.927Z,29.15
2022-08-05T00:21:42.971Z,29.15
2022-08-05T00:22:47.143Z,29.12
2022-08-05T00:23:45.731Z,29.09
2022-08-05T00:24:42.894Z,29.10
2022-08-05T00:25:46.120Z,29.07
2022-08-05T00:26:43.401Z,29.03
2022-08-05T00:27:43.911Z,29.07
2022-08-05T00:28:42.842Z,28.98
2022-08-05T00:29:42.837Z,29.00
2022-08-05T00:30:44.196Z,28.94
2022-08-05T00:32:10.514Z,28.91
2022-08-05T00:32:43.803Z,28.91
2022-08-05T00:34:57.050Z,28.94
2022-08-05T00:35:03.361Z,28.86
2022-08-05T00:35:47.834Z,28.91
2022-08-05T00:37:11.883Z,28.90
2022-08-05T00:37:53.104Z,28.84
2022-08-05T00:38:43.788Z,28.84
2022-08-05T00:39:44.494Z,28.91
2022-08-05T00:40:51.940Z,28.87
2022-08-05T00:41:51.675Z,28.89
2022-08-05T00:42:43.700Z,28.89
2022-08-05T00:43:47.023Z,28.71
2022-08-05T00:44:43.700Z,28.68
2022-08-05T00:45:43.565Z,28.71
2022-08-05T00:46:43.774Z,28.72
2022-08-05T00:47:56.870Z,28.72
2022-08-05T00:48:50.866Z,28.65
2022-08-05T00:49:51.113Z,28.62
2022-08-05T00:50:45.834Z,28.65
2022-08-05T00:51:50.750Z,28.68
2022-08-05T00:52:45.496Z,28.61
2022-08-05T00:54:01.349Z,28.65
2022-08-05T00:54:43.599Z,28.62
2022-08-05T00:55:43.794Z,28.49
2022-08-05T00:56:51.325Z,28.54
2022-08-05T00:57:58.452Z,28.56
2022-08-05T00:58:45.009Z,28.50
2022-08-05T00:59:44.638Z,28.47
2022-08-05T01:00:42.688Z,28.49
2022-08-05T01:01:48.296Z,28.46
2022-08-05T01:02:43.491Z,28.43
2022-08-05T01:03:42.481Z,28.43
2022-08-05T01:04:42.649Z,28.34
2022-08-05T01:05:42.459Z,28.30
2022-08-05T01:06:43.738Z,28.30
2022-08-05T01:08:40.885Z,28.32
2022-08-05T01:08:44.516Z,28.31
2022-08-05T01:09:42.454Z,28.32
2022-08-05T01:10:51.570Z,28.32
2022-08-05T01:11:43.394Z,28.22
2022-08-05T01:12:42.382Z,28.28
2022-08-05T01:13:58.346Z,28.27
2022-08-05T01:14:43.391Z,28.24
2022-08-05T01:15:47.723Z,28.15
2022-08-05T01:16:44.196Z,28.19
2022-08-05T01:17:44.244Z,28.12
2022-08-05T01:18:42.323Z,28.15
2022-08-05T01:20:01.940Z,28.24
2022-08-05T01:20:43.297Z,28.20
2022-08-05T01:21:42.293Z,28.16
2022-08-05T01:22:43.288Z,28.24
2022-08-05T01:23:42.271Z,28.06
2022-08-05T01:24:42.361Z,28.07
2022-08-05T01:25:42.256Z,28.12
2022-08-05T01:26:43.239Z,28.05
2022-08-05T01:27:55.539Z,28.01
2022-08-05T01:28:43.216Z,28.03
2022-08-05T01:29:42.940Z,28.06
2022-08-05T01:30:50.610Z,27.95
2022-08-05T01:31:44.917Z,28.01
2022-08-05T01:32:42.183Z,27.97
2022-08-05T01:33:42.164Z,27.94
2022-08-05T01:34:43.149Z,27.93
2022-08-05T01:35:51.042Z,27.88
2022-08-05T01:36:46.813Z,27.91
2022-08-05T01:37:44.605Z,27.95
2022-08-05T01:38:42.111Z,27.87
2022-08-05T01:39:47.897Z,27.79
2022-08-05T01:40:42.097Z,27.80
2022-08-05T01:41:44.358Z,27.76
2022-08-05T01:42:42.214Z,27.80
2022-08-05T01:43:42.065Z,27.79
2022-08-05T01:44:42.047Z,27.80
2022-08-05T01:45:42.798Z,27.82
2022-08-05T01:46:46.298Z,27.75
2022-08-05T01:47:43.488Z,27.75
2022-08-05T01:48:42.165Z,27.82
2022-08-05T01:50:00.279Z,27.75
2022-08-05T01:50:50.988Z,27.75
2022-08-05T01:51:42.981Z,27.68
2022-08-05T01:52:42.971Z,27.63
2022-08-05T01:53:57.121Z,27.61
2022-08-05T01:54:45.754Z,27.68
2022-08-05T01:55:41.937Z,27.54
2022-08-05T01:58:29.709Z,27.54
2022-08-05T01:58:30.189Z,27.60
2022-08-05T01:58:45.088Z,27.52
2022-08-05T01:59:41.898Z,27.53
2022-08-05T02:00:42.887Z,27.58
2022-08-05T02:01:41.937Z,27.52
2022-08-05T02:02:46.453Z,27.49
2022-08-05T02:03:42.910Z,27.52
2022-08-05T02:04:41.844Z,27.50
2022-08-05T02:05:42.672Z,27.53
2022-08-05T02:06:41.818Z,27.44
2022-08-05T02:07:41.816Z,27.44
2022-08-05T02:08:55.030Z,27.42
2022-08-05T02:09:42.821Z,27.35
2022-08-05T02:10:41.781Z,27.41
2022-08-05T02:11:42.239Z,27.37
2022-08-05T02:12:42.760Z,27.38
2022-08-05T02:13:53.457Z,27.38
2022-08-05T02:14:43.253Z,27.38
2022-08-05T02:15:41.733Z,27.40
2022-08-05T02:16:41.719Z,27.30
2022-08-05T02:18:27.712Z,27.30
2022-08-05T02:18:42.700Z,27.34
2022-08-05T02:19:47.382Z,27.34
2022-08-05T02:20:42.680Z,27.26
2022-08-05T02:21:43.358Z,27.26
2022-08-05T02:22:42.653Z,27.25
2022-08-05T02:23:41.645Z,27.27
2022-08-05T02:24:41.636Z,27.16
2022-08-05T02:25:49.994Z,27.23
2022-08-05T02:26:54.207Z,27.19
2022-08-05T02:27:58.307Z,27.20
2022-08-05T02:28:46.007Z,27.15
2022-08-05T02:29:59.715Z,27.08
2022-08-05T02:30:51.773Z,27.16
2022-08-05T02:31:42.561Z,27.12
2022-08-05T02:32:41.563Z,27.07
2022-08-05T02:33:41.542Z,27.10
2022-08-05T02:34:41.531Z,27.08
2022-08-05T02:35:49.891Z,27.04
2022-08-05T02:36:42.522Z,27.07
2022-08-05T02:37:41.497Z,27.00
2022-08-05T02:38:41.486Z,27.03
2022-08-05T02:39:41.588Z,26.95
2022-08-05T02:40:42.515Z,27.05
2022-08-05T02:41:43.154Z,27.05
2022-08-05T02:42:42.440Z,26.95
2022-08-05T02:44:02.327Z,26.98
2022-08-05T02:44:42.425Z,26.88
2022-08-05T02:45:52.206Z,26.90
2022-08-05T02:46:53.789Z,26.97
2022-08-05T02:47:58.656Z,26.89
2022-08-05T02:48:42.383Z,26.83
2022-08-05T02:49:41.373Z,26.86
2022-08-05T02:50:43.581Z,26.85
2022-08-05T02:52:03.853Z,26.82
2022-08-05T02:52:42.340Z,26.82
2022-08-05T02:53:41.336Z,26.88
2022-08-05T02:54:42.192Z,26.80
2022-08-05T02:55:54.008Z,26.79
2022-08-05T02:56:42.341Z,26.79
2022-08-05T02:58:10.986Z,26.73
2022-08-05T02:58:43.789Z,26.86
2022-08-05T02:59:47.878Z,26.70
2022-08-05T03:00:42.254Z,26.79
2022-08-05T03:01:41.309Z,26.78
2022-08-05T03:02:41.262Z,26.73
2022-08-05T03:04:02.836Z,26.75
2022-08-05T03:04:42.210Z,26.82
2022-08-05T03:06:54.300Z,26.73
2022-08-05T03:06:54.484Z,26.71
2022-08-05T03:08:06.779Z,26.65
2022-08-05T03:08:42.570Z,26.63
2022-08-05T03:09:43.902Z,26.73
2022-08-05T03:10:42.151Z,26.64
2022-08-05T03:11:55.141Z,26.65
2022-08-05T03:12:42.155Z,26.56
2022-08-05T03:13:51.707Z,26.64
2022-08-05T03:14:46.132Z,26.61
2022-08-05T03:15:42.096Z,26.63
2022-08-05T03:16:41.096Z,26.61
2022-08-05T03:17:41.775Z,26.58
2022-08-05T03:18:42.115Z,26.56
2022-08-05T03:19:41.887Z,26.53
2022-08-05T03:20:44.540Z,26.48
2022-08-05T03:21:49.413Z,26.46
2022-08-05T03:22:44.131Z,26.53
2022-08-05T03:23:42.046Z,26.53
2022-08-05T03:24:40.999Z,26.53
2022-08-05T03:26:04.497Z,26.41
2022-08-05T03:26:42.018Z,26.48
2022-08-05T03:28:00.212Z,26.45
2022-08-05T03:28:41.957Z,26.51
2022-08-05T03:29:45.378Z,26.48
2022-08-05T03:30:42.470Z,26.49
2022-08-05T03:31:57.036Z,26.48
2022-08-05T03:32:41.930Z,26.39
2022-08-05T03:33:52.833Z,26.38
2022-08-05T03:34:41.898Z,26.42
2022-08-05T03:35:41.826Z,26.34
2022-08-05T03:36:40.950Z,26.41
2022-08-05T03:37:46.450Z,26.33
2022-08-05T03:38:41.872Z,26.41
2022-08-05T03:39:57.734Z,26.39
2022-08-05T03:40:45.279Z,26.36
2022-08-05T03:41:45.350Z,26.33
2022-08-05T03:42:51.963Z,26.31
2022-08-05T03:44:09.902Z,26.34
2022-08-05T03:44:41.791Z,26.34
2022-08-05T03:45:55.074Z,26.31
2022-08-05T03:46:41.766Z,26.41
2022-08-05T03:47:41.349Z,26.26
2022-08-05T03:48:40.750Z,26.26
2022-08-05T03:49:51.585Z,26.31
2022-08-05T03:50:41.900Z,26.28
2022-08-05T03:52:49.231Z,26.36
2022-08-05T03:55:06.779Z,26.19
2022-08-05T03:55:34.715Z,26.26
2022-08-05T03:55:50.220Z,26.24
2022-08-05T03:56:04.592Z,26.21
2022-08-05T03:56:41.691Z,26.19
2022-08-05T03:57:41.538Z,26.12
2022-08-05T03:58:41.159Z,26.21
2022-08-05T03:59:47.302Z,26.12
2022-08-05T04:00:42.058Z,26.19
2022-08-05T04:01:40.666Z,26.15
2022-08-05T04:02:52.230Z,26.10
2022-08-05T04:03:41.588Z,26.16
2022-08-05T04:04:41.575Z,26.15
2022-08-05T04:05:40.563Z,26.08
2022-08-05T04:06:48.040Z,26.04
2022-08-05T04:07:57.468Z,26.11
2022-08-05T04:08:41.541Z,26.08
2022-08-05T04:09:53.603Z,26.10
2022-08-05T04:10:41.510Z,26.05
2022-08-05T04:11:50.801Z,26.08
2022-08-05T04:13:11.442Z,26.04
2022-08-05T04:14:11.458Z,26.08
2022-08-05T04:15:15.529Z,26.04
2022-08-05T04:16:11.405Z,26.03
2022-08-05T04:17:11.423Z,26.03
2022-08-05T04:18:20.525Z,26.04
2022-08-05T04:19:12.372Z,26.04
2022-08-05T04:20:11.363Z,26.03
2022-08-05T04:21:11.354Z,25.98
2022-08-05T04:22:12.320Z,26.03
2022-08-05T04:23:12.569Z,25.98
2022-08-05T04:24:19.129Z,25.95
2022-08-05T04:25:12.317Z,26.04
2022-08-05T04:26:11.300Z,25.95
2022-08-05T04:27:11.322Z,26.03
2022-08-05T04:28:12.776Z,25.98
2022-08-05T04:29:11.268Z,25.92
2022-08-05T04:30:11.260Z,25.95
2022-08-05T04:31:11.249Z,25.98
2022-08-05T04:32:11.276Z,25.93
2022-08-05T04:33:11.226Z,25.93
2022-08-05T04:34:19.159Z,25.93
2022-08-05T04:35:17.618Z,25.92
2022-08-05T04:36:45.871Z,25.95
2022-08-05T04:37:12.782Z,25.88
2022-08-05T04:38:11.182Z,25.90
2022-08-05T04:39:11.296Z,25.90
2022-08-05T04:40:11.152Z,25.90
2022-08-05T04:41:11.136Z,25.88
2022-08-05T04:42:11.165Z,25.96
2022-08-05T04:43:16.310Z,25.90
2022-08-05T04:44:12.105Z,25.88
2022-08-05T04:45:11.096Z,25.89
2022-08-05T04:46:12.079Z,25.81
2022-08-05T04:47:14.597Z,25.88
2022-08-05T04:48:16.534Z,25.88
2022-08-05T04:49:14.664Z,25.83
2022-08-05T04:50:11.765Z,25.86
2022-08-05T04:51:11.670Z,25.93
2022-08-05T04:52:11.083Z,25.92
2022-08-05T04:53:11.024Z,25.88
2022-08-05T04:54:12.167Z,25.86
2022-08-05T04:55:14.589Z,25.83
2022-08-05T04:56:32.179Z,25.88
2022-08-05T04:57:11.965Z,25.93
2022-08-05T04:58:12.416Z,25.86
2022-08-05T04:59:21.607Z,25.92
2022-08-05T05:00:11.937Z,25.88
2022-08-05T05:01:11.031Z,25.95
2022-08-05T05:02:36.680Z,25.96
2022-08-05T05:03:12.039Z,25.92
2022-08-05T05:04:11.928Z,25.92
2022-08-05T05:05:16.626Z,25.95
2022-08-05T05:06:35.899Z,25.96
2022-08-05T05:07:11.857Z,25.95
2022-08-05T05:08:14.483Z,25.93
2022-08-05T05:09:16.072Z,25.86
2022-08-05T05:10:11.863Z,25.92
2022-08-05T05:11:10.816Z,26.00
2022-08-05T05:12:10.808Z,26.00
2022-08-05T05:13:10.795Z,25.96
2022-08-05T05:14:10.785Z,26.01
2022-08-05T05:15:11.822Z,26.01
2022-08-05T05:16:11.765Z,26.01
2022-08-05T05:17:10.748Z,26.00
2022-08-05T05:18:10.740Z,26.01
2022-08-05T05:19:19.439Z,26.07
2022-08-05T05:20:11.763Z,26.07
2022-08-05T05:21:10.708Z,26.07
2022-08-05T05:22:23.943Z,26.03
2022-08-05T05:23:19.961Z,26.10
2022-08-05T05:24:11.674Z,26.05
2022-08-05T05:25:17.114Z,26.08
2022-08-05T05:26:11.650Z,26.07
2022-08-05T05:27:10.642Z,26.11
2022-08-05T05:28:10.631Z,26.10
2022-08-05T05:29:14.745Z,26.15
2022-08-05T05:30:28.789Z,26.11
2022-08-05T05:31:11.597Z,26.12
2022-08-05T05:32:12.395Z,26.10
2022-08-05T05:33:17.209Z,26.16
2022-08-05T05:34:11.568Z,26.12
2022-08-05T05:35:10.591Z,26.15
2022-08-05T05:36:11.580Z,26.11
2022-08-05T05:37:10.532Z,26.15
2022-08-05T05:38:12.853Z,26.23
2022-08-05T05:39:10.964Z,26.21
2022-08-05T05:40:10.499Z,26.16
2022-08-05T05:41:10.495Z,26.26
2022-08-05T05:42:10.479Z,26.27
2022-08-05T05:43:10.497Z,26.20
2022-08-05T05:44:35.433Z,26.27
2022-08-05T05:45:11.461Z,26.28
2022-08-05T05:46:15.784Z,26.33
2022-08-05T05:47:21.489Z,26.36
2022-08-05T05:48:11.439Z,26.34
2022-08-05T05:49:22.395Z,26.27
2022-08-05T05:50:11.390Z,26.36
2022-08-05T05:51:15.125Z,26.36
2022-08-05T05:52:20.203Z,26.39
2022-08-05T05:53:22.395Z,26.36
2022-08-05T05:54:11.646Z,26.41
2022-08-05T05:55:13.517Z,26.42
2022-08-05T05:56:10.326Z,26.34
2022-08-05T05:57:13.885Z,26.48
2022-08-05T05:58:11.346Z,26.33
2022-08-05T05:59:10.320Z,26.39
2022-08-05T06:00:10.289Z,26.45
2022-08-05T06:01:13.286Z,26.43
2022-08-05T06:02:11.259Z,26.46
2022-08-05T06:03:28.389Z,26.41
2022-08-05T06:04:12.699Z,26.51
2022-08-05T06:05:16.658Z,26.46
2022-08-05T06:06:11.217Z,26.36
2022-08-05T06:07:10.582Z,26.46
2022-08-05T06:08:10.198Z,26.42
2022-08-05T06:09:17.113Z,26.52
2022-08-05T06:10:11.193Z,26.51
2022-08-05T06:11:10.171Z,26.51
2022-08-05T06:12:10.183Z,26.56
2022-08-05T06:13:10.143Z,26.53
2022-08-05T06:14:10.189Z,26.57
2022-08-05T06:15:16.471Z,26.57
2022-08-05T06:16:30.902Z,26.57
2022-08-05T06:17:24.327Z,26.61
2022-08-05T06:18:11.272Z,26.63
2022-08-05T06:19:10.081Z,26.58
2022-08-05T06:20:18.699Z,26.60
2022-08-05T06:21:18.464Z,26.67
2022-08-05T06:22:11.052Z,26.65
2022-08-05T06:23:10.037Z,26.65
2022-08-05T06:24:12.133Z,26.65
2022-08-05T06:25:59.431Z,26.70
2022-08-05T06:26:13.639Z,26.70
2022-08-05T06:27:17.338Z,26.75
2022-08-05T06:28:21.446Z,26.78
2022-08-05T06:29:43.087Z,26.65
2022-08-05T06:30:18.129Z,26.79
2022-08-05T06:31:18.111Z,26.79
2022-08-05T06:32:21.321Z,26.82
2022-08-05T06:33:11.003Z,26.88
2022-08-05T06:34:09.995Z,26.78
2022-08-05T06:35:15.599Z,26.78
2022-08-05T06:36:10.927Z,26.80
2022-08-05T06:37:09.908Z,26.88
2022-08-05T06:38:11.903Z,26.80
2022-08-05T06:39:09.924Z,26.86
2022-08-05T06:40:09.902Z,27.00
2022-08-05T06:41:09.841Z,26.90
2022-08-05T06:42:09.835Z,26.95
2022-08-05T06:43:58.246Z,26.94
2022-08-05T06:44:10.815Z,27.03
2022-08-05T06:45:09.803Z,27.00
2022-08-05T06:46:10.983Z,27.07
2022-08-05T06:47:10.274Z,27.01
2022-08-05T06:48:37.246Z,27.05
2022-08-05T06:49:10.761Z,27.10
2022-08-05T06:50:09.752Z,27.04
2022-08-05T06:51:12.113Z,27.10
2022-08-05T06:52:37.893Z,27.13
2022-08-05T06:53:11.405Z,27.17
2022-08-05T06:54:09.705Z,27.22
2022-08-05T06:55:09.772Z,27.27
2022-08-05T06:56:25.879Z,27.22
2022-08-05T06:57:57.737Z,27.30
2022-08-05T06:58:30.230Z,27.31
2022-08-05T06:59:11.942Z,27.32
2022-08-05T07:00:09.956Z,27.38
2022-08-05T07:01:09.697Z,27.37
2022-08-05T07:02:09.642Z,27.37
2022-08-05T07:03:09.928Z,27.45
2022-08-05T07:04:09.602Z,27.47
2022-08-05T07:05:15.341Z,27.45
2022-08-05T07:06:15.218Z,27.58
2022-08-05T07:07:09.574Z,27.52
2022-08-05T07:08:10.660Z,27.57
2022-08-05T07:09:09.578Z,27.57
2022-08-05T07:10:09.542Z,27.50
2022-08-05T07:11:15.503Z,27.70
2022-08-05T07:12:10.518Z,27.68
2022-08-05T07:13:09.506Z,27.75
2022-08-05T07:14:19.954Z,27.79
2022-08-05T07:15:10.529Z,27.83
2022-08-05T07:16:12.027Z,27.75
2022-08-05T07:18:01.237Z,27.83
2022-08-05T07:18:12.555Z,27.85
2022-08-05T07:19:10.446Z,27.90
2022-08-05T07:21:10.464Z,27.94
2022-08-05T07:22:09.450Z,28.05
2022-08-05T07:23:09.407Z,27.98
2022-08-05T07:24:11.288Z,28.07
2022-08-05T07:25:23.655Z,28.12
2022-08-05T07:26:10.393Z,28.17
2022-08-05T07:27:09.400Z,28.15
2022-08-05T07:28:11.817Z,28.12
2022-08-05T07:29:10.341Z,28.25
2022-08-05T07:30:27.679Z,28.24
2022-08-05T07:31:10.318Z,28.24
2022-08-05T07:32:09.307Z,28.24
2022-08-05T07:33:10.579Z,28.35
2022-08-05T07:34:10.289Z,28.28
2022-08-05T07:36:02.193Z,28.46
2022-08-05T07:36:20.747Z,28.40
2022-08-05T07:37:11.594Z,28.46
2022-08-05T07:38:12.124Z,28.47
2022-08-05T07:39:24.462Z,28.52
2022-08-05T07:40:31.516Z,28.47
2022-08-05T07:42:07.317Z,28.53
2022-08-05T07:42:15.125Z,28.53
2022-08-05T07:43:20.240Z,28.64
2022-08-05T07:44:14.121Z,28.69
2022-08-05T07:45:09.431Z,28.69
2022-08-05T07:46:18.205Z,28.64
2022-08-05T07:47:10.218Z,28.68
2022-08-05T07:48:09.136Z,28.74
2022-08-05T07:49:09.124Z,28.74
2022-08-05T07:50:09.119Z,28.90
2022-08-05T07:51:23.548Z,28.80
2022-08-05T07:52:10.135Z,28.87
2022-08-05T07:53:09.079Z,28.90
2022-08-05T07:54:10.018Z,28.86
2022-08-05T07:55:16.049Z,28.89
2022-08-05T07:57:00.287Z,28.91
2022-08-05T07:57:22.539Z,28.86
2022-08-05T07:58:17.552Z,28.84
2022-08-05T07:59:10.035Z,28.86
2022-08-05T08:00:11.407Z,29.00
2022-08-05T08:01:12.139Z,28.96
2022-08-05T08:02:15.413Z,28.98
2022-08-05T08:03:14.270Z,28.91
2022-08-05T08:04:09.998Z,29.00
2022-08-05T08:05:09.008Z,28.89
2022-08-05T08:06:08.948Z,29.02
2022-08-05T08:07:08.939Z,28.96
2022-08-05T08:08:12.435Z,28.90
2022-08-05T08:09:08.915Z,28.98
2022-08-05T08:10:09.152Z,28.98
2022-08-05T08:11:09.150Z,29.03
2022-08-05T08:12:30.605Z,28.93
2022-08-05T08:13:09.874Z,28.90
2022-08-05T08:14:08.860Z,29.03
2022-08-05T08:15:09.401Z,28.94
2022-08-05T08:16:35.949Z,29.00
2022-08-05T08:17:09.830Z,28.94
2022-08-05T08:18:14.197Z,28.98
2022-08-05T08:19:08.813Z,28.89
2022-08-05T08:20:43.275Z,28.93
2022-08-05T08:21:17.461Z,28.94
2022-08-05T08:22:09.785Z,28.94
2022-08-05T08:23:59.733Z,28.91
2022-08-05T08:24:13.990Z,28.94
2022-08-05T08:25:16.251Z,28.90
2022-08-05T08:26:09.728Z,28.93
2022-08-05T08:27:08.723Z,28.93
2022-08-05T08:28:18.213Z,28.87
2022-08-05T08:29:45.117Z,28.93
2022-08-05T08:30:28.589Z,28.90
2022-08-05T08:31:09.669Z,28.93
2022-08-05T08:32:10.797Z,28.91
2022-08-05T08:33:08.687Z,28.84
2022-08-05T08:34:09.718Z,28.87
2022-08-05T08:35:13.456Z,28.81
2022-08-05T08:37:09.617Z,28.91
2022-08-05T08:38:08.605Z,28.89
2022-08-05T08:39:14.992Z,28.89
2022-08-05T08:40:09.580Z,28.77
2022-08-05T08:41:08.783Z,28.74
2022-08-05T08:42:32.395Z,28.83
2022-08-05T08:45:16.282Z,28.90
2022-08-05T08:45:20.314Z,28.84
2022-08-05T08:45:25.407Z,28.81
2022-08-05T08:46:09.841Z,28.83
2022-08-05T08:47:21.775Z,28.93
2022-08-05T08:48:22.586Z,28.81
2022-08-05T08:50:22.252Z,28.79
2022-08-05T08:50:32.732Z,28.74
2022-08-05T08:51:22.839Z,28.72
2022-08-05T08:52:13.829Z,28.66
2022-08-05T08:53:12.370Z,28.77
2022-08-05T08:54:08.430Z,28.77
2022-08-05T08:55:13.259Z,28.69
2022-08-05T08:56:08.407Z,28.66
2022-08-05T08:57:11.556Z,28.66
2022-08-05T08:58:08.589Z,28.68
2022-08-05T08:59:14.906Z,28.61
2022-08-05T09:00:09.413Z,28.68
2022-08-05T09:01:10.887Z,28.65
2022-08-05T09:02:09.351Z,28.68
2022-08-05T09:03:08.342Z,28.69
2022-08-05T09:04:10.743Z,28.72
2022-08-05T09:05:17.626Z,28.68
2022-08-05T09:06:11.519Z,28.68
2022-08-05T09:07:19.372Z,28.68
2022-08-05T09:08:09.788Z,28.65
2022-08-05T09:09:08.299Z,28.71
2022-08-05T09:10:08.289Z,28.66
2022-08-05T09:11:08.249Z,28.68
2022-08-05T09:12:20.204Z,28.59
2022-08-05T09:13:09.235Z,28.59
2022-08-05T09:14:54.101Z,28.61
2022-08-05T09:15:09.209Z,28.64
2022-08-05T09:16:08.194Z,28.62
2022-08-05T09:17:09.462Z,28.59
2022-08-05T09:18:08.851Z,28.64
2022-08-05T09:19:08.174Z,28.65
2022-08-05T09:20:08.538Z,28.66
2022-08-05T09:21:11.451Z,28.57
2022-08-05T09:22:22.447Z,28.53
2022-08-05T09:23:09.741Z,28.50
2022-08-05T09:24:10.217Z,28.56
2022-08-05T09:25:13.945Z,28.54
2022-08-05T09:26:09.398Z,28.59
2022-08-05T09:27:08.077Z,28.57
2022-08-05T09:28:08.083Z,28.52
2022-08-05T09:29:08.997Z,28.59
2022-08-05T09:30:08.105Z,28.57
2022-08-05T09:31:43.824Z,28.57
2022-08-05T09:32:41.708Z,28.57
2022-08-05T09:33:09.007Z,28.57
2022-08-05T09:34:09.773Z,28.62
2022-08-05T09:35:07.991Z,28.62
2022-08-05T09:36:16.407Z,28.65
2022-08-05T09:37:15.228Z,28.62
2022-08-05T09:38:17.572Z,28.65
2022-08-05T09:39:18.063Z,28.57
2022-08-05T09:40:09.045Z,28.69
2022-08-05T09:41:08.198Z,28.72
2022-08-05T09:42:07.945Z,28.62
2022-08-05T09:43:08.397Z,28.66
2022-08-05T09:44:07.933Z,28.66
2022-08-05T09:46:05.156Z,28.72
2022-08-05T09:46:09.071Z,28.64
2022-08-05T09:47:10.239Z,28.66
2022-08-05T09:48:07.856Z,28.66
2022-08-05T09:49:18.927Z,28.68
2022-08-05T09:50:08.870Z,28.77
2022-08-05T09:51:15.197Z,28.71
2022-08-05T09:52:08.804Z,28.69
2022-08-05T09:53:08.895Z,28.80
2022-08-05T09:54:09.429Z,28.77
2022-08-05T09:55:56.449Z,28.75
2022-08-05T09:56:13.313Z,28.84
2022-08-05T09:57:23.457Z,28.83
2022-08-05T09:58:08.756Z,28.90
2022-08-05T09:59:07.738Z,28.87
2022-08-05T10:00:09.913Z,28.87
2022-08-05T10:01:13.279Z,28.83
2022-08-05T10:02:08.717Z,28.90
2022-08-05T10:03:07.769Z,28.86
2022-08-05T10:04:10.549Z,28.86
2022-08-05T10:05:08.005Z,28.81
2022-08-05T10:06:07.811Z,28.86
2022-08-05T10:07:20.450Z,28.87
2022-08-05T10:08:35.112Z,28.86
2022-08-05T10:09:08.625Z,28.87
2022-08-05T10:10:14.978Z,28.84
2022-08-05T10:11:08.631Z,28.91
2022-08-05T10:12:07.641Z,28.77
2022-08-05T10:13:09.685Z,28.87
2022-08-05T10:14:07.578Z,28.89
2022-08-05T10:15:07.559Z,28.83
2022-08-05T10:16:07.592Z,28.89
2022-08-05T10:17:07.560Z,28.86
2022-08-05T10:18:08.542Z,28.86
2022-08-05T10:19:09.215Z,28.83
2022-08-05T10:20:11.024Z,28.86
2022-08-05T10:21:11.691Z,28.83
2022-08-05T10:22:08.982Z,28.80
2022-08-05T10:23:08.880Z,28.83
2022-08-05T10:24:10.889Z,28.84
2022-08-05T10:25:07.592Z,28.84
2022-08-05T10:26:07.453Z,28.80
2022-08-05T10:27:08.486Z,28.89
2022-08-05T10:28:13.001Z,28.80
2022-08-05T10:29:08.410Z,28.80
2022-08-05T10:31:20.728Z,28.71
2022-08-05T10:32:53.120Z,28.77
2022-08-05T10:32:54.721Z,28.75
2022-08-05T10:33:09.395Z,28.66
2022-08-05T10:34:08.392Z,28.69
2022-08-05T10:35:07.354Z,28.72
2022-08-05T10:36:07.373Z,28.68
2022-08-05T10:37:07.332Z,28.71
2022-08-05T10:38:08.363Z,28.74
2022-08-05T10:39:10.477Z,28.68
2022-08-05T10:40:17.960Z,28.71
2022-08-05T10:41:08.353Z,28.66
2022-08-05T10:42:07.272Z,28.69
2022-08-05T10:43:07.270Z,28.64
2022-08-05T10:44:07.250Z,28.57
2022-08-05T10:45:21.007Z,28.62
2022-08-05T10:46:08.261Z,28.57
2022-08-05T10:47:10.136Z,28.59
2022-08-05T10:48:31.005Z,28.57
2022-08-05T10:49:10.415Z,28.52
2022-08-05T10:50:31.588Z,28.50
2022-08-05T10:51:21.975Z,28.62
2022-08-05T10:52:10.287Z,28.53
2022-08-05T10:53:07.155Z,28.47
2022-08-05T10:54:28.741Z,28.56
2022-08-05T10:55:08.132Z,28.46
2022-08-05T10:56:21.411Z,28.50
2022-08-05T10:57:08.134Z,28.47
2022-08-05T10:58:07.106Z,28.43
2022-08-05T11:00:01.170Z,28.42
2022-08-05T11:00:18.260Z,28.47
2022-08-05T11:01:08.074Z,28.50
2022-08-05T11:02:07.221Z,28.52
2022-08-05T11:03:23.012Z,28.50
2022-08-05T11:04:08.080Z,28.52
2022-08-05T11:05:07.028Z,28.50
2022-08-05T11:06:08.618Z,28.52
2022-08-05T11:07:08.096Z,28.50
2022-08-05T11:08:27.505Z,28.54
2022-08-05T11:09:07.987Z,28.47
2022-08-05T11:10:09.940Z,28.50
2022-08-05T11:11:14.538Z,28.49
2022-08-05T11:12:07.948Z,28.50
2022-08-05T11:13:06.978Z,28.43
2022-08-05T11:14:06.928Z,28.50
2022-08-05T11:15:19.467Z,28.47
2022-08-05T11:16:07.914Z,28.52
2022-08-05T11:17:57.543Z,28.43
2022-08-05T11:18:09.790Z,28.42
2022-08-05T11:20:11.399Z,28.54
2022-08-05T11:20:17.375Z,28.47
2022-08-05T11:21:11.573Z,28.53
2022-08-05T11:22:06.843Z,28.43
2022-08-05T11:23:10.433Z,28.59
2022-08-05T11:24:30.325Z,28.54
2022-08-05T11:25:16.914Z,28.52
2022-08-05T11:26:09.173Z,28.61
2022-08-05T11:27:06.796Z,28.72
2022-08-05T11:28:06.822Z,28.66
2022-08-05T11:29:13.245Z,28.64
2022-08-05T11:30:07.802Z,28.72
2022-08-05T11:31:06.886Z,28.77
2022-08-05T11:32:06.734Z,28.75
2022-08-05T11:33:06.928Z,28.87
2022-08-05T11:34:08.063Z,28.84
2022-08-05T11:35:06.710Z,28.87
2022-08-05T11:36:07.886Z,28.93
2022-08-05T11:38:29.464Z,28.98
2022-08-05T11:38:29.693Z,29.07
2022-08-05T11:39:07.769Z,29.12
2022-08-05T11:40:06.657Z,29.10
2022-08-05T11:41:34.795Z,29.21
2022-08-05T11:42:07.677Z,29.21
2022-08-05T11:43:06.625Z,29.34
2022-08-05T11:44:08.381Z,29.44
2022-08-05T11:45:26.786Z,29.39
2022-08-05T11:46:15.325Z,29.44
2022-08-05T11:47:12.120Z,29.58
2022-08-05T11:48:07.596Z,29.59
2022-08-05T11:49:08.088Z,29.55
2022-08-05T11:50:06.547Z,29.77
2022-08-05T11:51:06.534Z,29.83
2022-08-05T11:52:11.620Z,29.92
2022-08-05T11:53:09.982Z,29.95
2022-08-05T11:54:06.498Z,30.05
2022-08-05T11:55:07.665Z,30.15
2022-08-05T11:56:06.481Z,30.24
2022-08-05T11:57:07.926Z,30.22
2022-08-05T11:58:10.386Z,30.32
2022-08-05T11:59:13.697Z,30.35
2022-08-05T12:00:07.440Z,30.51
2022-08-05T12:01:10.378Z,30.53
2022-08-05T12:02:06.419Z,30.64
2022-08-05T12:03:07.433Z,30.71
2022-08-05T12:04:06.396Z,30.85
2022-08-05T12:05:07.279Z,30.90
2022-08-05T12:06:10.192Z,30.96
2022-08-05T12:07:06.363Z,31.08
2022-08-05T12:08:09.909Z,31.24
2022-08-05T12:09:06.343Z,31.29
2022-08-05T12:10:09.417Z,31.38
2022-08-05T12:11:07.326Z,31.42
2022-08-05T12:12:06.311Z,31.61
2022-08-05T12:13:15.908Z,31.71
2022-08-05T12:14:07.575Z,31.68
2022-08-05T12:15:06.282Z,31.82
2022-08-05T12:16:14.164Z,31.91
2022-08-05T12:18:00.568Z,31.99
2022-08-05T12:18:10.613Z,31.99
2022-08-05T12:19:08.452Z,32.08
2022-08-05T12:20:27.017Z,32.21
2022-08-05T12:21:07.223Z,32.17
2022-08-05T12:22:09.642Z,32.28
2022-08-05T12:23:06.231Z,32.46
2022-08-05T12:24:07.329Z,32.45
2022-08-05T12:25:06.183Z,32.46
2022-08-05T12:26:06.164Z,32.54
2022-08-05T12:27:09.925Z,32.65
2022-08-05T12:28:07.196Z,32.77
2022-08-05T12:29:09.582Z,32.87
2022-08-05T12:30:07.134Z,32.95
2022-08-05T12:31:06.127Z,32.98
2022-08-05T12:32:07.446Z,33.03
2022-08-05T12:33:07.190Z,33.19
2022-08-05T12:34:07.129Z,33.27
2022-08-05T12:35:06.075Z,33.29
2022-08-05T12:36:07.308Z,33.33
2022-08-05T12:37:06.055Z,33.47
2022-08-05T12:38:06.043Z,33.45
2022-08-05T12:39:07.059Z,33.58
2022-08-05T12:40:10.773Z,33.62
2022-08-05T12:41:12.458Z,33.70
2022-08-05T12:42:08.513Z,33.73
2022-08-05T12:43:05.990Z,33.70
2022-08-05T12:44:06.017Z,33.76
2022-08-05T12:45:09.397Z,33.88
2022-08-05T12:46:05.964Z,33.88
2022-08-05T12:47:05.948Z,34.00
2022-08-05T12:48:27.633Z,33.97
2022-08-05T12:49:13.672Z,34.03
2022-08-05T12:50:07.341Z,34.10
2022-08-05T12:51:05.913Z,34.18
2022-08-05T12:52:12.982Z,34.20
2022-08-05T12:53:06.891Z,34.23
2022-08-05T12:54:16.614Z,34.34
2022-08-05T12:55:06.871Z,34.29